Time;durP1;ratioP1;P1;durP2;ratioP2;P2;SDS_P1;SDS_P2;PMS_P1;PMS_P2;Temp;Humidity;BMP_temperature;BMP_pressure;BME280_temperature;BME280_humidity;BME280_pressure;Samples;Min_cycle;Max_cycle;Signal;HPM_P1;HPM_P2
2023/10/28 00:02:11;;;;;;;;;;;;;;;7.92;100.00;98904.94;110987;1212;97597;-67
2023/10/28 00:04:36;;;;;;;;;;;;;;;7.93;100.00;98909.33;110901;1219;97476;-68
2023/10/28 00:07:01;;;;;;;;;;;;;;;7.96;100.00;98909.12;110799;1212;124646;-67
2023/10/28 00:09:26;;;;;;;;;;;;;;;7.96;100.00;98908.80;110924;1208;97620;-68
2023/10/28 00:11:52;;;;;;;;;;;;;;;7.98;100.00;98911.15;110850;1211;125546;-67
2023/10/28 00:14:19;;;;;;;;;;;;;;;7.99;100.00;98908.08;110919;1208;97597;-67
2023/10/28 00:16:44;;;;;;;;;;;;;;;8.01;100.00;98912.05;110867;1212;107911;-67
2023/10/28 00:19:09;;;;;;;;;;;;;;;8.00;100.00;98912.48;110806;1208;125243;-68
2023/10/28 00:21:35;;;;;;;;;;;;;;;7.96;100.00;98908.81;110984;1212;97618;-67
2023/10/28 00:24:01;;;;;;;;;;;;;;;7.93;100.00;98908.41;110785;1212;125332;-68
2023/10/28 00:26:27;;;;;;;;;;;;;;;7.93;100.00;98908.27;110882;1208;98647;-68
2023/10/28 00:28:52;;;;;;;;;;;;;;;7.96;100.00;98906.85;111026;1212;97585;-68
2023/10/28 00:31:19;;;;;;;;;;;;;;;7.96;100.00;98908.40;110791;1209;125333;-68
2023/10/28 00:33:45;;;;;;;;;;;;;;;7.96;100.00;98906.69;110938;1212;97597;-68
2023/10/28 00:36:11;;;;;;;;;;;;;;;7.95;100.00;98901.73;110893;1212;125285;-68
2023/10/28 00:38:36;;;;;;;;;;;;;;;7.95;100.00;98905.27;110886;1209;97599;-68
2023/10/28 00:41:01;;;;;;;;;;;;;;;7.91;100.00;98903.92;110887;1211;97587;-68
2023/10/28 00:43:27;;;;;;;;;;;;;;;7.88;100.00;98908.73;110811;1210;125472;-68
2023/10/28 00:45:54;;;;;;;;;;;;;;;7.86;100.00;98910.68;110872;1208;97713;-68
2023/10/28 00:48:19;;;;;;;;;;;;;;;7.86;100.00;98913.33;110775;1211;125122;-68
2023/10/28 00:50:44;;;;;;;;;;;;;;;7.85;100.00;98911.98;110997;1209;97657;-68
2023/10/28 00:53:10;;;;;;;;;;;;;;;7.82;100.00;98909.58;110786;1212;127262;-67
2023/10/28 00:55:35;;;;;;;;;;;;;;;7.83;100.00;98914.73;110876;1208;97643;-67
2023/10/28 00:58:01;;;;;;;;;;;;;;;7.81;100.00;98915.55;110970;1208;97614;-67
2023/10/28 01:00:26;;;;;;;;;;;;;;;7.79;100.00;98920.30;110827;1212;124535;-67
2023/10/28 01:02:52;;;;;;;;;;;;;;;7.79;100.00;98922.27;110901;1212;97605;-68
2023/10/28 01:05:19;;;;;;;;;;;;;;;7.79;100.00;98921.77;110759;1212;125451;-67
2023/10/28 01:07:45;;;;;;;;;;;;;;;7.79;100.00;98925.31;110918;1209;98878;-68
2023/10/28 01:10:11;;;;;;;;;;;;;;;7.79;100.00;98928.72;110858;1224;97708;-68
2023/10/28 01:12:39;;;;;;;;;;;;;;;7.79;100.00;98927.44;110821;1212;125001;-68
2023/10/28 01:15:05;;;;;;;;;;;;;;;7.76;100.00;98925.98;110852;1208;97333;-68
2023/10/28 01:17:31;;;;;;;;;;;;;;;7.75;100.00;98928.38;110876;1212;124723;-67
2023/10/28 01:19:56;;;;;;;;;;;;;;;7.75;100.00;98932.50;110971;1208;97805;-68
2023/10/28 01:22:23;;;;;;;;;;;;;;;7.75;100.00;98932.31;111122;1209;98286;-68
2023/10/28 01:24:49;;;;;;;;;;;;;;;7.75;100.00;98932.29;110830;1212;124676;-68
2023/10/28 01:27:15;;;;;;;;;;;;;;;7.75;100.00;98930.37;110910;1212;98010;-68
2023/10/28 01:29:40;;;;;;;;;;;;;;;7.76;100.00;98927.45;110879;1209;126485;-68
2023/10/28 01:32:05;;;;;;;;;;;;;;;7.77;100.00;98927.02;110908;1217;98048;-68
2023/10/28 01:34:32;;;;;;;;;;;;;;;7.78;100.00;98926.98;110945;1209;99167;-68
2023/10/28 01:36:57;;;;;;;;;;;;;;;7.76;100.00;98930.48;110842;1208;126691;-68
2023/10/28 01:39:22;;;;;;;;;;;;;;;7.76;100.00;98929.03;110852;1212;97710;-68
2023/10/28 01:41:48;;;;;;;;;;;;;;;7.76;100.00;98931.85;110799;1211;125006;-68
2023/10/28 01:44:14;;;;;;;;;;;;;;;7.77;100.00;98932.56;110862;1212;97781;-69
2023/10/28 01:46:40;;;;;;;;;;;;;;;7.76;100.00;98932.95;110889;1207;97613;-68
2023/10/28 01:49:05;;;;;;;;;;;;;;;7.78;100.00;98931.25;110797;1209;125282;-68
2023/10/28 01:51:30;;;;;;;;;;;;;;;7.78;100.00;98927.50;110802;1212;97644;-68
2023/10/28 01:53:55;;;;;;;;;;;;;;;7.80;100.00;98927.89;110824;1208;124710;-68
2023/10/28 01:56:23;;;;;;;;;;;;;;;7.80;100.00;98928.63;110812;1208;98004;-69
2023/10/28 01:58:48;;;;;;;;;;;;;;;7.79;100.00;98930.80;110867;1212;97651;-67
2023/10/28 02:01:14;;;;;;;;;;;;;;;7.80;100.00;98929.88;110854;1209;125782;-66
2023/10/28 02:03:39;;;;;;;;;;;;;;;7.81;100.00;98930.30;110872;1211;101715;-67
2023/10/28 02:06:05;;;;;;;;;;;;;;;7.81;100.00;98928.50;110836;1212;125063;-67
2023/10/28 02:08:30;;;;;;;;;;;;;;;7.82;100.00;98928.14;110879;1212;96439;-67
2023/10/28 02:10:56;;;;;;;;;;;;;;;7.80;100.00;98931.31;110895;1212;97892;-67
2023/10/28 02:13:22;;;;;;;;;;;;;;;7.82;100.00;98931.52;110785;1212;125212;-67
2023/10/28 02:15:47;;;;;;;;;;;;;;;7.86;100.00;98930.17;110785;1208;97549;-67
2023/10/28 02:18:13;;;;;;;;;;;;;;;7.88;100.00;98936.14;110792;1212;125118;-67
2023/10/28 02:20:39;;;;;;;;;;;;;;;7.85;100.00;98937.35;110965;1212;97620;-68
2023/10/28 02:23:04;;;;;;;;;;;;;;;7.82;100.00;98935.74;110886;1212;97649;-67
2023/10/28 02:25:29;;;;;;;;;;;;;;;7.81;100.00;98936.70;110734;1212;126492;-66
2023/10/28 02:27:54;;;;;;;;;;;;;;;7.79;100.00;98941.98;110961;1208;99095;-67
2023/10/28 02:30:20;;;;;;;;;;;;;;;7.79;100.00;98944.34;110751;1207;124832;-67
2023/10/28 02:32:45;;;;;;;;;;;;;;;7.80;100.00;98946.90;110925;1208;97669;-66
2023/10/28 02:35:11;;;;;;;;;;;;;;;7.80;100.00;98948.50;110787;1224;124894;-66
2023/10/28 02:37:36;;;;;;;;;;;;;;;7.82;100.00;98954.08;110961;1212;98691;-66
2023/10/28 02:40:03;;;;;;;;;;;;;;;7.84;100.00;98953.41;110829;1208;107849;-67
2023/10/28 02:42:29;;;;;;;;;;;;;;;7.82;100.00;98957.25;110652;1208;126192;-66
2023/10/28 02:44:54;;;;;;;;;;;;;;;7.83;100.00;98960.61;110893;1208;97647;-66
2023/10/28 02:47:20;;;;;;;;;;;;;;;7.86;100.00;98958.83;110835;1211;125470;-65
2023/10/28 02:49:45;;;;;;;;;;;;;;;7.86;100.00;98965.42;110858;1209;98026;-67
2023/10/28 02:52:11;;;;;;;;;;;;;;;7.85;100.00;98966.73;110918;1208;96458;-66
2023/10/28 02:54:36;;;;;;;;;;;;;;;7.84;100.00;98968.56;110730;1216;126815;-66
2023/10/28 02:57:01;;;;;;;;;;;;;;;7.86;100.00;98969.86;110874;1212;99260;-66
2023/10/28 02:59:27;;;;;;;;;;;;;;;7.87;100.00;98972.49;110776;1209;125092;-66
2023/10/28 03:01:52;;;;;;;;;;;;;;;7.88;100.00;98973.48;110954;1213;100932;-66
2023/10/28 03:04:18;;;;;;;;;;;;;;;7.91;100.00;98980.26;110849;1211;97742;-66
2023/10/28 03:06:43;;;;;;;;;;;;;;;7.91;100.00;98980.27;110800;1208;124770;-66
2023/10/28 03:09:08;;;;;;;;;;;;;;;7.93;100.00;98982.80;110884;1208;97576;-66
2023/10/28 03:11:33;;;;;;;;;;;;;;;7.93;100.00;98984.02;110869;1212;126040;-65
2023/10/28 03:13:59;;;;;;;;;;;;;;;7.92;100.00;98988.87;110866;1212;97646;-66
2023/10/28 03:16:25;;;;;;;;;;;;;;;7.90;100.00;98991.50;110841;1211;96492;-66
2023/10/28 03:18:50;;;;;;;;;;;;;;;7.89;100.00;98988.54;110787;1212;125775;-66
2023/10/28 03:21:15;;;;;;;;;;;;;;;7.88;100.00;98991.80;110853;1208;97959;-66
2023/10/28 03:23:40;;;;;;;;;;;;;;;7.90;100.00;98993.64;110870;1212;125077;-66
2023/10/28 03:26:06;;;;;;;;;;;;;;;7.89;100.00;98992.95;110872;1208;97690;-66
2023/10/28 03:28:32;;;;;;;;;;;;;;;7.89;100.00;98990.32;110943;1208;97288;-66
2023/10/28 03:30:57;;;;;;;;;;;;;;;7.86;100.00;98990.48;110842;1212;127127;-66
2023/10/28 03:33:23;;;;;;;;;;;;;;;7.85;100.00;98992.48;110820;1212;97565;-66
2023/10/28 03:35:48;;;;;;;;;;;;;;;7.83;100.00;98990.80;110789;1212;125190;-66
2023/10/28 03:38:13;;;;;;;;;;;;;;;7.82;100.00;98991.92;110920;1208;97606;-66
2023/10/28 03:40:38;;;;;;;;;;;;;;;7.81;100.00;98991.64;110947;1212;97590;-66
2023/10/28 03:43:04;;;;;;;;;;;;;;;7.80;100.00;98989.60;110751;1212;125892;-66
2023/10/28 03:45:29;;;;;;;;;;;;;;;7.81;100.00;98985.80;110834;1208;97606;-66
2023/10/28 03:47:54;;;;;;;;;;;;;;;7.81;100.00;98984.52;110813;1212;125894;-67
2023/10/28 03:50:20;;;;;;;;;;;;;;;7.81;100.00;98983.83;110823;1208;97713;-66
2023/10/28 03:52:45;;;;;;;;;;;;;;;7.80;100.00;98981.23;110886;1212;97755;-66
2023/10/28 03:55:10;;;;;;;;;;;;;;;7.81;100.00;98981.03;110728;1213;124912;-66
2023/10/28 03:57:35;;;;;;;;;;;;;;;7.85;100.00;98982.56;110887;1209;97736;-66
2023/10/28 04:00:00;;;;;;;;;;;;;;;7.83;100.00;98984.95;110751;1212;125264;-67
2023/10/28 04:02:27;;;;;;;;;;;;;;;7.83;100.00;98985.33;110890;1208;97607;-66
2023/10/28 04:04:53;;;;;;;;;;;;;;;7.83;100.00;98980.70;111015;1208;97712;-66
2023/10/28 04:07:19;;;;;;;;;;;;;;;7.84;100.00;98983.30;110640;1213;125626;-66
2023/10/28 04:09:44;;;;;;;;;;;;;;;7.85;100.00;98984.13;110857;1208;98245;-66
2023/10/28 04:12:09;;;;;;;;;;;;;;;7.87;100.00;98981.52;110905;1208;125309;-66
2023/10/28 04:14:35;;;;;;;;;;;;;;;7.88;100.00;98986.10;110879;1212;97681;-66
2023/10/28 04:17:01;;;;;;;;;;;;;;;7.89;100.00;98989.08;110965;1208;100333;-66
2023/10/28 04:19:26;;;;;;;;;;;;;;;7.88;100.00;98983.77;110817;1208;124839;-66
2023/10/28 04:21:52;;;;;;;;;;;;;;;7.88;100.00;98988.25;110906;1212;97682;-66
2023/10/28 04:24:18;;;;;;;;;;;;;;;7.86;100.00;98989.26;110783;1210;124840;-66
2023/10/28 04:26:43;;;;;;;;;;;;;;;7.86;100.00;98990.30;110822;1208;97876;-66
2023/10/28 04:29:09;;;;;;;;;;;;;;;7.88;100.00;98986.99;110812;1212;126010;-65
2023/10/28 04:31:34;;;;;;;;;;;;;;;7.88;100.00;98986.42;110919;1208;97581;-66
2023/10/28 04:34:02;;;;;;;;;;;;;;;7.90;100.00;98987.60;110872;1208;97622;-66
2023/10/28 04:36:28;;;;;;;;;;;;;;;7.89;100.00;98985.19;110723;1212;125016;-66
2023/10/28 04:38:53;;;;;;;;;;;;;;;7.88;100.00;98987.02;110998;1212;97666;-66
2023/10/28 04:41:18;;;;;;;;;;;;;;;7.89;100.00;98985.51;110750;1211;125408;-66
2023/10/28 04:43:44;;;;;;;;;;;;;;;7.91;100.00;98988.44;110886;1207;97668;-66
2023/10/28 04:46:09;;;;;;;;;;;;;;;7.89;100.00;98990.30;110933;1220;98993;-66
2023/10/28 04:48:35;;;;;;;;;;;;;;;7.91;100.00;98993.58;110728;1209;126780;-66
2023/10/28 04:51:02;;;;;;;;;;;;;;;7.92;100.00;98993.32;110872;1208;97645;-66
2023/10/28 04:53:28;;;;;;;;;;;;;;;7.94;100.00;98992.16;110758;1213;126021;-65
2023/10/28 04:55:55;;;;;;;;;;;;;;;7.95;100.00;98989.59;110981;1213;97759;-66
2023/10/28 04:58:20;;;;;;;;;;;;;;;7.94;100.00;98991.08;110748;1208;96430;-66
2023/10/28 05:00:45;;;;;;;;;;;;;;;7.91;100.00;98991.42;110590;1213;125979;-66
2023/10/28 05:03:10;;;;;;;;;;;;;;;7.91;100.00;98988.75;110952;1208;97837;-66
2023/10/28 05:05:37;;;;;;;;;;;;;;;7.94;100.00;98990.35;110780;1224;125286;-65
2023/10/28 05:08:02;;;;;;;;;;;;;;;7.96;100.00;98992.02;110781;1212;97655;-66
2023/10/28 05:10:27;;;;;;;;;;;;;;;7.97;100.00;98995.71;110879;1210;97681;-66
2023/10/28 05:12:52;;;;;;;;;;;;;;;7.97;100.00;98998.70;110776;1213;125121;-66
2023/10/28 05:15:19;;;;;;;;;;;;;;;7.98;100.00;99001.67;110926;1208;97584;-66
2023/10/28 05:17:44;;;;;;;;;;;;;;;7.98;100.00;99002.38;110740;1213;126668;-66
2023/10/28 05:20:10;;;;;;;;;;;;;;;7.97;100.00;99008.30;110837;1211;97730;-66
2023/10/28 05:22:36;;;;;;;;;;;;;;;7.97;100.00;99009.41;110879;1208;98512;-66
2023/10/28 05:25:03;;;;;;;;;;;;;;;7.96;100.00;99009.09;110728;1223;126282;-67
2023/10/28 05:27:29;;;;;;;;;;;;;;;7.96;100.00;99012.16;110876;1212;97688;-66
2023/10/28 05:29:54;;;;;;;;;;;;;;;7.95;100.00;99016.80;110809;1209;125539;-66
2023/10/28 05:32:19;;;;;;;;;;;;;;;7.95;100.00;99018.61;110883;1208;100423;-66
2023/10/28 05:34:45;;;;;;;;;;;;;;;7.95;100.00;99027.29;110888;1212;97700;-66
2023/10/28 05:37:10;;;;;;;;;;;;;;;7.96;100.00;99026.52;110825;1208;126526;-66
2023/10/28 05:39:35;;;;;;;;;;;;;;;7.99;100.00;99029.73;110831;1212;98249;-66
2023/10/28 05:42:00;;;;;;;;;;;;;;;8.01;100.00;99029.27;110770;1212;125430;-66
2023/10/28 05:44:25;;;;;;;;;;;;;;;8.00;100.00;99033.73;110874;1208;97648;-66
2023/10/28 05:46:50;;;;;;;;;;;;;;;8.01;100.00;99037.06;110788;1214;97676;-66
2023/10/28 05:49:16;;;;;;;;;;;;;;;8.01;100.00;99038.70;110840;1213;124766;-66
2023/10/28 05:51:43;;;;;;;;;;;;;;;8.01;100.00;99042.94;110928;1213;97636;-66
2023/10/28 05:54:11;;;;;;;;;;;;;;;8.01;100.00;99041.17;110765;1211;124897;-66
2023/10/28 05:56:36;;;;;;;;;;;;;;;8.00;100.00;99041.60;110790;1209;97583;-66
2023/10/28 05:59:01;;;;;;;;;;;;;;;7.98;100.00;99047.75;110965;1219;97576;-66
2023/10/28 06:01:26;;;;;;;;;;;;;;;7.98;100.00;99050.04;110767;1214;125160;-66
2023/10/28 06:03:52;;;;;;;;;;;;;;;8.01;100.00;99055.02;110905;1208;96923;-66
2023/10/28 06:06:17;;;;;;;;;;;;;;;8.01;100.00;99059.86;110691;1214;125079;-66
2023/10/28 06:08:42;;;;;;;;;;;;;;;8.04;100.00;99058.59;110820;1208;97669;-66
2023/10/28 06:11:09;;;;;;;;;;;;;;;8.06;100.00;99060.45;110832;1208;98879;-66
2023/10/28 06:13:37;;;;;;;;;;;;;;;8.05;100.00;99061.37;110726;1224;108000;-66
2023/10/28 06:16:03;;;;;;;;;;;;;;;8.09;100.00;99061.70;110681;1211;97719;-67
2023/10/28 06:18:29;;;;;;;;;;;;;;;8.12;100.00;99063.63;111102;1212;126389;-66
2023/10/28 06:20:55;;;;;;;;;;;;;;;8.16;100.00;99065.73;110674;1212;99116;-67
2023/10/28 06:23:20;;;;;;;;;;;;;;;8.18;100.00;99071.16;110564;1208;125012;-66
2023/10/28 06:25:45;;;;;;;;;;;;;;;8.15;100.00;99072.70;110695;1209;97691;-67
2023/10/28 06:28:10;;;;;;;;;;;;;;;8.13;100.00;99078.34;110861;1214;97672;-66
2023/10/28 06:30:36;;;;;;;;;;;;;;;8.13;100.00;99080.15;110562;1212;124968;-67
2023/10/28 06:33:02;;;;;;;;;;;;;;;8.13;100.00;99083.51;110912;1209;99095;-67
2023/10/28 06:35:27;;;;;;;;;;;;;;;8.14;100.00;99081.85;110663;1214;126934;-66
2023/10/28 06:37:53;;;;;;;;;;;;;;;8.16;100.00;99087.62;110683;1213;97938;-67
2023/10/28 06:40:18;;;;;;;;;;;;;;;8.18;100.00;99089.11;110766;1211;97909;-67
2023/10/28 06:42:43;;;;;;;;;;;;;;;8.24;100.00;99092.85;110655;1208;125331;-67
2023/10/28 06:45:09;;;;;;;;;;;;;;;8.26;100.00;99096.29;110895;1214;97639;-66
2023/10/28 06:47:35;;;;;;;;;;;;;;;8.28;100.00;99099.04;111370;1208;125070;-68
2023/10/28 06:50:04;;;;;;;;;;;;;;;8.30;100.00;99101.56;110797;1211;97697;-67
2023/10/28 06:52:30;;;;;;;;;;;;;;;8.29;100.00;99100.57;110733;1212;97611;-68
2023/10/28 06:54:55;;;;;;;;;;;;;;;8.30;100.00;99100.86;110648;1214;124946;-68
2023/10/28 06:57:20;;;;;;;;;;;;;;;8.34;100.00;99100.65;110815;1209;98036;-68
2023/10/28 06:59:45;;;;;;;;;;;;;;;8.35;100.00;99100.04;110687;1215;126215;-67
2023/10/28 07:02:10;;;;;;;;;;;;;;;8.34;100.00;99100.98;110811;1214;97633;-68
2023/10/28 07:04:36;;;;;;;;;;;;;;;8.37;100.00;99099.05;110764;1213;97594;-68
2023/10/28 07:07:01;;;;;;;;;;;;;;;8.38;100.00;99103.79;110772;1214;124845;-68
2023/10/28 07:09:26;;;;;;;;;;;;;;;8.38;100.00;99108.02;110825;1208;97764;-68
2023/10/28 07:11:53;;;;;;;;;;;;;;;8.37;100.00;99111.01;110712;1220;125244;-67
2023/10/28 07:14:18;;;;;;;;;;;;;;;8.35;100.00;99109.82;110898;1208;98107;-69
2023/10/28 07:16:43;;;;;;;;;;;;;;;8.39;100.00;99109.41;110874;1214;97637;-69
2023/10/28 07:19:09;;;;;;;;;;;;;;;8.42;100.00;99106.07;110847;1224;125855;-68
2023/10/28 07:21:35;;;;;;;;;;;;;;;8.46;100.00;99109.38;110933;1212;97687;-68
2023/10/28 07:24:01;;;;;;;;;;;;;;;8.48;100.00;99114.25;110792;1208;124812;-69
2023/10/28 07:26:28;;;;;;;;;;;;;;;8.50;100.00;99116.45;110804;1212;97703;-68
2023/10/28 07:28:53;;;;;;;;;;;;;;;8.49;100.00;99118.98;110902;1214;97584;-69
2023/10/28 07:31:19;;;;;;;;;;;;;;;8.48;100.00;99121.53;110813;1212;124996;-68
2023/10/28 07:33:45;;;;;;;;;;;;;;;8.50;100.00;99122.52;110868;1214;98908;-70
2023/10/28 07:36:12;;;;;;;;;;;;;;;8.51;100.00;99116.35;110794;1212;126463;-68
2023/10/28 07:38:38;;;;;;;;;;;;;;;8.53;100.00;99119.29;110862;1212;97634;-68
2023/10/28 07:41:04;;;;;;;;;;;;;;;8.49;100.00;99119.00;110893;1213;97684;-68
2023/10/28 07:43:29;;;;;;;;;;;;;;;8.45;100.00;99120.48;110802;1214;124750;-68
2023/10/28 07:45:54;;;;;;;;;;;;;;;8.45;100.00;99129.19;110951;1209;98799;-68
2023/10/28 07:48:19;;;;;;;;;;;;;;;8.44;100.00;99133.88;110821;1214;124977;-68
2023/10/28 07:50:44;;;;;;;;;;;;;;;8.44;100.00;99137.06;110924;1212;97581;-68
2023/10/28 07:53:11;;;;;;;;;;;;;;;8.47;100.00;99138.16;110815;1208;125454;-66
2023/10/28 07:55:38;;;;;;;;;;;;;;;8.52;100.00;99140.73;110925;1212;97649;-69
2023/10/28 07:58:03;;;;;;;;;;;;;;;8.56;100.00;99143.68;111041;1212;97649;-69
2023/10/28 08:00:29;;;;;;;;;;;;;;;8.59;100.00;99145.64;110812;1208;126044;-71
2023/10/28 08:02:54;;;;;;;;;;;;;;;8.63;100.00;99146.83;110790;1214;100880;-67
2023/10/28 08:05:19;;;;;;;;;;;;;;;8.65;100.00;99153.11;110865;1214;125894;-68
2023/10/28 08:07:48;;;;;;;;;;;;;;;8.66;100.00;99158.71;110973;1214;96464;-67
2023/10/28 08:10:14;;;;;;;;;;;;;;;8.69;100.00;99160.01;110918;1211;97619;-67
2023/10/28 08:12:40;;;;;;;;;;;;;;;8.70;100.00;99161.67;110815;1214;125252;-67
2023/10/28 08:15:07;;;;;;;;;;;;;;;8.72;100.00;99163.02;111004;1218;97687;-67
2023/10/28 08:17:33;;;;;;;;;;;;;;;8.72;100.00;99160.67;110817;1214;125456;-67
2023/10/28 08:19:58;;;;;;;;;;;;;;;8.74;100.00;99162.36;110944;1208;97682;-67
2023/10/28 08:22:26;;;;;;;;;;;;;;;8.77;100.00;99165.73;110922;1212;97680;-68
2023/10/28 08:24:52;;;;;;;;;;;;;;;8.82;100.00;99170.08;110856;1208;125803;-68
2023/10/28 08:27:17;;;;;;;;;;;;;;;8.84;100.00;99174.22;110859;1212;97579;-68
2023/10/28 08:29:45;;;;;;;;;;;;;;;8.88;100.00;99181.70;110905;1209;124922;-67
2023/10/28 08:32:10;;;;;;;;;;;;;;;8.89;100.00;99183.02;110931;1212;97673;-68
2023/10/28 08:34:35;;;;;;;;;;;;;;;8.91;100.00;99191.27;110966;1213;97719;-68
2023/10/28 08:37:01;;;;;;;;;;;;;;;8.93;100.00;99192.22;110918;1212;126996;-68
2023/10/28 08:39:28;;;;;;;;;;;;;;;8.95;100.00;99192.07;111081;1211;97799;-67
2023/10/28 08:41:54;;;;;;;;;;;;;;;8.96;100.00;99200.61;110818;1212;125211;-68
2023/10/28 08:44:23;;;;;;;;;;;;;;;8.95;100.00;99206.68;111038;1212;97574;-66
2023/10/28 08:46:49;;;;;;;;;;;;;;;8.95;100.00;99203.30;111002;1214;100053;-65
2023/10/28 08:49:17;;;;;;;;;;;;;;;8.96;100.00;99207.92;110803;1208;126222;-66
2023/10/28 08:51:47;;;;;;;;;;;;;;;8.94;100.00;99209.95;110957;1214;97699;-66
2023/10/28 08:54:14;;;;;;;;;;;;;;;8.92;100.00;99208.48;110883;1214;125038;-66
2023/10/28 08:56:41;;;;;;;;;;;;;;;8.94;100.00;99207.14;110961;1212;97736;-66
2023/10/28 08:59:07;;;;;;;;;;;;;;;8.96;100.00;99212.31;110952;1208;97687;-66
2023/10/28 09:01:33;;;;;;;;;;;;;;;8.98;100.00;99213.44;110849;1214;125067;-66
2023/10/28 09:04:01;;;;;;;;;;;;;;;8.99;100.00;99214.65;110990;1212;98213;-66
2023/10/28 09:06:28;;;;;;;;;;;;;;;9.03;100.00;99218.52;110837;1213;124772;-67
2023/10/28 09:08:54;;;;;;;;;;;;;;;9.06;100.00;99221.73;110978;1214;97579;-66
2023/10/28 09:11:19;;;;;;;;;;;;;;;9.07;100.00;99227.00;110829;1220;126173;-66
2023/10/28 09:13:45;;;;;;;;;;;;;;;9.10;100.00;99226.26;110983;1222;97662;-66
2023/10/28 09:16:10;;;;;;;;;;;;;;;9.12;100.00;99229.73;110991;1212;98938;-67
2023/10/28 09:18:39;;;;;;;;;;;;;;;9.12;100.00;99236.88;110879;1212;124937;-67
2023/10/28 09:21:05;;;;;;;;;;;;;;;9.11;100.00;99238.01;110959;1211;97706;-67
2023/10/28 09:23:31;;;;;;;;;;;;;;;9.06;100.00;99241.64;110837;1208;125018;-67
2023/10/28 09:25:56;;;;;;;;;;;;;;;9.06;100.00;99242.37;111057;1214;97605;-67
2023/10/28 09:28:22;;;;;;;;;;;;;;;9.06;100.00;99246.85;110934;1212;97585;-67
2023/10/28 09:30:47;;;;;;;;;;;;;;;9.05;100.00;99251.68;110885;1214;125041;-67
2023/10/28 09:33:13;;;;;;;;;;;;;;;9.06;100.00;99252.16;110973;1212;97587;-67
2023/10/28 09:35:39;;;;;;;;;;;;;;;9.06;100.00;99254.52;110814;1212;125911;-66
2023/10/28 09:38:05;;;;;;;;;;;;;;;9.05;100.00;99259.91;111039;1214;97684;-67
2023/10/28 09:40:31;;;;;;;;;;;;;;;9.04;100.00;99263.91;110951;1213;97634;-66
2023/10/28 09:42:57;;;;;;;;;;;;;;;9.02;100.00;99263.64;110875;1209;124845;-66
2023/10/28 09:45:22;;;;;;;;;;;;;;;9.03;100.00;99262.17;110938;1211;97706;-66
2023/10/28 09:47:57;;;;;;;;;;;;;;;9.05;100.00;99263.64;110809;1221;126182;-66
2023/10/28 09:50:25;;;;;;;;;;;;;;;9.06;100.00;99264.49;110843;1222;97722;-66
2023/10/28 09:52:54;;;;;;;;;;;;;;;9.02;100.00;99270.23;110951;1225;97264;-67
2023/10/28 09:55:23;;;;;;;;;;;;;;;9.00;100.00;99269.63;110849;1214;125290;-66
2023/10/28 09:57:50;;;;;;;;;;;;;;;9.00;100.00;99270.73;110964;1208;98424;-66
2023/10/28 10:00:19;;;;;;;;;;;;;;;9.03;100.00;99270.52;110807;1222;125258;-67
2023/10/28 10:02:54;;;;;;;;;;;;;;;9.05;100.00;99272.22;111008;1224;97664;-67
2023/10/28 10:05:30;;;;;;;;;;;;;;;9.06;100.00;99274.30;110773;1208;125141;-66
2023/10/28 10:07:55;;;;;;;;;;;;;;;9.07;100.00;99274.77;110959;1212;112371;-67
2023/10/28 10:10:20;;;;;;;;;;;;;;;9.09;100.00;99274.83;110918;1208;97586;-66
2023/10/28 10:12:50;;;;;;;;;;;;;;;9.09;100.00;99276.60;110842;1228;126752;-66
2023/10/28 10:15:19;;;;;;;;;;;;;;;9.08;100.00;99274.35;110956;1222;97998;-66
2023/10/28 10:17:54;;;;;;;;;;;;;;;9.09;100.00;99275.53;110954;1209;125428;-66
2023/10/28 10:20:26;;;;;;;;;;;;;;;9.10;100.00;99272.45;110925;1210;102656;-67
2023/10/28 10:23:01;;;;;;;;;;;;;;;9.11;100.00;99278.96;110948;1212;107782;-67
2023/10/28 10:25:37;;;;;;;;;;;;;;;9.13;100.00;99276.90;110793;1210;125410;-66
2023/10/28 10:28:09;;;;;;;;;;;;;;;9.15;100.00;99280.86;110994;1212;97699;-66
2023/10/28 10:30:34;;;;;;;;;;;;;;;9.14;100.00;99280.78;110831;1214;125801;-66
2023/10/28 10:33:00;;;;;;;;;;;;;;;9.15;100.00;99274.86;110959;1212;97680;-66
2023/10/28 10:35:30;;;;;;;;;;;;;;;9.15;100.00;99277.17;110842;1209;125052;-66
2023/10/28 10:38:06;;;;;;;;;;;;;;;9.13;100.00;99277.78;110979;1212;99228;-66
2023/10/28 10:40:32;;;;;;;;;;;;;;;9.18;100.00;99278.76;111164;1210;112389;-66
2023/10/28 10:43:07;;;;;;;;;;;;;;;9.21;100.00;99281.23;110889;1210;124899;-66
2023/10/28 10:45:34;;;;;;;;;;;;;;;9.27;100.00;99283.20;110966;1221;107649;-66
2023/10/28 10:48:00;;;;;;;;;;;;;;;9.26;100.00;99283.80;110956;1210;125707;-66
2023/10/28 10:50:26;;;;;;;;;;;;;;;9.27;100.00;99283.19;110935;1212;97347;-66
2023/10/28 10:52:51;;;;;;;;;;;;;;;9.32;100.00;99291.11;111053;1212;97678;-66
2023/10/28 10:55:23;;;;;;;;;;;;;;;9.32;100.00;99295.34;110783;1222;125551;-67
2023/10/28 10:57:49;;;;;;;;;;;;;;;9.35;100.00;99296.63;110931;1212;97830;-67
2023/10/28 11:00:15;;;;;;;;;;;;;;;9.35;100.00;99300.55;110841;1212;125789;-66
2023/10/28 11:02:40;;;;;;;;;;;;;;;9.32;100.00;99300.52;111000;1213;97746;-67
2023/10/28 11:05:06;;;;;;;;;;;;;;;9.29;100.00;99301.09;110924;1212;106823;-67
2023/10/28 11:07:31;;;;;;;;;;;;;;;9.24;100.00;99305.09;110760;1209;124874;-67
2023/10/28 11:09:57;;;;;;;;;;;;;;;9.20;100.00;99306.77;110984;1212;97805;-66
2023/10/28 11:12:23;;;;;;;;;;;;;;;9.16;100.00;99309.70;110820;1220;125366;-66
2023/10/28 11:14:48;;;;;;;;;;;;;;;9.17;100.00;99310.55;110944;1212;97604;-66
2023/10/28 11:17:14;;;;;;;;;;;;;;;9.19;100.00;99311.64;111049;1212;125657;-66
2023/10/28 11:19:46;;;;;;;;;;;;;;;9.22;100.00;99313.96;110919;1212;98426;-66
2023/10/28 11:22:12;;;;;;;;;;;;;;;9.27;100.00;99319.39;110971;1209;100605;-67
2023/10/28 11:24:38;;;;;;;;;;;;;;;9.31;100.00;99321.29;110782;1212;125088;-67
2023/10/28 11:27:03;;;;;;;;;;;;;;;9.34;100.00;99326.06;111022;1212;98279;-67
2023/10/28 11:29:28;;;;;;;;;;;;;;;9.40;100.00;99318.60;110748;1221;125578;-66
2023/10/28 11:31:54;;;;;;;;;;;;;;;9.41;100.00;99319.21;110911;1212;97617;-67
2023/10/28 11:34:19;;;;;;;;;;;;;;;9.43;100.00;99328.01;110955;1212;97710;-67
2023/10/28 11:36:45;;;;;;;;;;;;;;;9.45;100.00;99328.81;110870;1222;125282;-67
2023/10/28 11:39:16;;;;;;;;;;;;;;;9.45;100.00;99330.24;111061;1209;97850;-67
2023/10/28 11:41:43;;;;;;;;;;;;;;;9.46;100.00;99329.33;110928;1212;124959;-66
2023/10/28 11:44:10;;;;;;;;;;;;;;;9.48;100.00;99331.34;111104;1210;97683;-67
2023/10/28 11:46:35;;;;;;;;;;;;;;;9.54;100.00;99335.98;110883;1212;96465;-67
2023/10/28 11:49:00;;;;;;;;;;;;;;;9.57;100.00;99339.90;110929;1212;125377;-66
2023/10/28 11:51:27;;;;;;;;;;;;;;;9.52;100.00;99336.98;110860;1212;97644;-67
2023/10/28 11:53:53;;;;;;;;;;;;;;;9.47;100.00;99334.76;110848;1221;124873;-66
2023/10/28 11:56:21;;;;;;;;;;;;;;;9.48;100.00;99332.07;110953;1212;97676;-67
2023/10/28 11:58:49;;;;;;;;;;;;;;;9.51;100.00;99328.81;110957;1210;100554;-67
2023/10/28 12:01:14;;;;;;;;;;;;;;;9.50;100.00;99329.79;110851;1212;125755;-67
2023/10/28 12:03:39;;;;;;;;;;;;;;;9.50;100.00;99329.95;111026;1209;98247;-67
2023/10/28 12:06:05;;;;;;;;;;;;;;;9.54;100.00;99332.05;110899;1212;125712;-66
2023/10/28 12:08:30;;;;;;;;;;;;;;;9.51;100.00;99337.77;111053;1209;97642;-67
2023/10/28 12:10:55;;;;;;;;;;;;;;;9.46;100.00;99339.83;110945;1212;106337;-67
2023/10/28 12:13:20;;;;;;;;;;;;;;;9.41;100.00;99341.52;110791;1212;126047;-67
2023/10/28 12:15:46;;;;;;;;;;;;;;;9.35;100.00;99348.84;111046;1212;97584;-67
2023/10/28 12:18:11;;;;;;;;;;;;;;;9.32;100.00;99350.63;110843;1212;125088;-67
2023/10/28 12:20:36;;;;;;;;;;;;;;;9.34;100.00;99355.14;110956;1212;97612;-67
2023/10/28 12:23:02;;;;;;;;;;;;;;;9.40;100.00;99353.35;110927;1209;97559;-67
2023/10/28 12:25:28;;;;;;;;;;;;;;;9.43;100.00;99355.68;110825;1208;125718;-67
2023/10/28 12:27:53;;;;;;;;;;;;;;;9.44;100.00;99357.58;111054;1210;97600;-67